createdAt,value
2022-10-21T00:01:56.987Z,9.18
2022-10-21T00:04:27.839Z,8.43
2022-10-21T00:06:58.522Z,9.68
2022-10-21T00:09:29.458Z,10.13
2022-10-21T00:12:03.027Z,8.65
2022-10-21T00:14:34.129Z,9.90
2022-10-21T00:17:05.245Z,9.07
2022-10-21T00:19:39.459Z,8.20
2022-10-21T00:22:10.085Z,12.77
2022-10-21T00:24:41.008Z,9.88
2022-10-21T00:27:14.563Z,9.98
2022-10-21T00:29:45.289Z,9.63
2022-10-21T00:32:16.006Z,13.40
2022-10-21T00:34:47.650Z,8.50
2022-10-21T00:37:19.193Z,8.65
2022-10-21T00:39:49.885Z,9.23
2022-10-21T00:42:25.457Z,12.38
2022-10-21T00:45:22.083Z,13.35
2022-10-21T00:47:56.998Z,9.98
2022-10-21T00:50:36.378Z,11.13
2022-10-21T00:53:12.108Z,7.75
2022-10-21T00:55:49.999Z,10.35
2022-10-21T00:58:27.757Z,12.77
2022-10-21T01:01:00.980Z,6.88
2022-10-21T01:03:34.130Z,10.95
2022-10-21T01:06:08.290Z,8.77
2022-10-21T01:08:40.181Z,17.65
2022-10-21T01:11:15.979Z,14.13
2022-10-21T01:14:02.379Z,8.27
2022-10-21T01:16:47.250Z,9.30
2022-10-21T01:19:50.859Z,9.20
2022-10-21T01:22:39.324Z,17.45
2022-10-21T01:25:33.819Z,14.40
2022-10-21T01:28:14.606Z,9.07
2022-10-21T01:30:52.199Z,7.60
2022-10-21T01:33:48.737Z,16.80
2022-10-21T01:36:31.647Z,6.70
2022-10-21T01:39:16.145Z,10.27
2022-10-21T01:41:54.803Z,10.95
2022-10-21T01:44:29.397Z,10.40
2022-10-21T01:47:05.727Z,13.60
2022-10-21T01:49:41.443Z,10.13
2022-10-21T01:52:13.570Z,15.48
2022-10-21T01:54:48.043Z,8.13
2022-10-21T01:57:22.104Z,12.45
2022-10-21T01:59:54.720Z,6.70
2022-10-21T02:02:31.622Z,8.73
2022-10-21T02:07:35.398Z,11.15
2022-10-21T02:10:07.053Z,9.25
2022-10-21T02:12:40.826Z,10.38
2022-10-21T02:15:14.506Z,11.57
2022-10-21T02:17:52.871Z,7.90
2022-10-21T02:20:27.618Z,9.88
2022-10-21T02:22:58.825Z,8.57
2022-10-21T02:25:34.947Z,16.05
2022-10-21T02:28:06.372Z,10.97
2022-10-21T02:30:45.617Z,8.27
2022-10-21T02:33:26.071Z,21.25
2022-10-21T02:36:05.335Z,8.52
2022-10-21T02:38:43.009Z,7.57
2022-10-21T02:41:15.538Z,7.75
2022-10-21T02:43:50.898Z,9.02
2022-10-21T02:46:21.586Z,13.23
2022-10-21T02:48:54.964Z,13.32
2022-10-21T02:51:25.759Z,7.30
2022-10-21T02:53:56.487Z,8.30
2022-10-21T02:56:27.432Z,7.22
2022-10-21T02:58:58.349Z,7.47
2022-10-21T03:01:29.110Z,9.15
2022-10-21T03:04:02.446Z,8.25
2022-10-21T03:06:33.379Z,9.85
2022-10-21T03:09:05.578Z,12.15
2022-10-21T03:11:36.320Z,10.00
2022-10-21T03:14:07.461Z,4.97
2022-10-21T03:16:38.195Z,6.70
2022-10-21T03:19:12.336Z,8.85
2022-10-21T03:21:43.219Z,6.05
2022-10-21T03:24:24.886Z,10.20
2022-10-21T03:26:58.466Z,8.25
2022-10-21T03:29:29.111Z,9.35
2022-10-21T03:31:59.874Z,7.00
2022-10-21T03:34:33.176Z,5.68
2022-10-21T03:37:03.805Z,9.75
2022-10-21T03:39:34.508Z,7.53
2022-10-21T03:42:05.404Z,6.22
2022-10-21T03:44:36.104Z,6.88
2022-10-21T03:47:07.010Z,7.68
2022-10-21T03:49:40.556Z,7.15
2022-10-21T03:52:11.443Z,8.73
2022-10-21T03:54:42.439Z,10.43
2022-10-21T03:57:13.407Z,6.90
2022-10-21T03:59:44.234Z,4.07
2022-10-21T04:02:15.071Z,8.10
2022-10-21T04:04:48.371Z,7.05
2022-10-21T04:07:19.322Z,7.25
2022-10-21T04:09:50.261Z,8.23
2022-10-21T04:12:20.918Z,8.70
2022-10-21T04:14:51.610Z,8.40
2022-10-21T04:17:22.797Z,12.82
2022-10-21T04:19:56.318Z,8.65
2022-10-21T04:22:27.088Z,8.88
2022-10-21T04:24:59.756Z,9.13
2022-10-21T04:27:33.209Z,9.02
2022-10-21T04:30:03.839Z,9.43
2022-10-21T04:32:34.494Z,9.90
2022-10-21T04:35:08.617Z,6.50
2022-10-21T04:37:40.355Z,7.65
2022-10-21T04:40:13.374Z,6.90
2022-10-21T04:42:43.993Z,5.47
2022-10-21T04:45:15.036Z,10.48
2022-10-21T04:47:46.310Z,8.70
2022-10-21T04:50:19.847Z,8.65
2022-10-21T04:52:50.605Z,10.82
2022-10-21T04:55:21.755Z,7.72
2022-10-21T04:57:52.624Z,9.15
2022-10-21T05:00:24.068Z,6.80
2022-10-21T05:02:55.063Z,9.40
2022-10-21T05:05:28.618Z,9.27
2022-10-21T05:07:59.653Z,6.97
2022-10-21T05:10:30.862Z,7.68
2022-10-21T05:13:01.765Z,8.43
2022-10-21T05:15:32.611Z,9.90
2022-10-21T05:18:03.838Z,7.82
2022-10-21T05:20:37.353Z,6.60
2022-10-21T05:23:08.477Z,7.22
2022-10-21T05:25:39.118Z,8.52
2022-10-21T05:28:10.393Z,8.30
2022-10-21T05:33:32.788Z,9.32
2022-10-21T05:36:09.097Z,10.40
2022-10-21T05:38:40.098Z,9.40
2022-10-21T05:41:11.178Z,8.55
2022-10-21T05:43:42.570Z,7.00
2022-10-21T05:46:13.974Z,6.78
2022-10-21T05:48:44.694Z,7.20
2022-10-21T05:51:18.546Z,8.07
2022-10-21T05:53:49.613Z,8.32
2022-10-21T05:56:20.743Z,7.50
2022-10-21T05:58:51.735Z,7.57
2022-10-21T06:01:22.598Z,9.60
2022-10-21T06:03:53.643Z,7.53
2022-10-21T06:06:27.185Z,9.32
2022-10-21T06:08:57.976Z,8.77
2022-10-21T06:11:29.288Z,10.68
2022-10-21T06:14:00.005Z,10.27
2022-10-21T06:16:30.953Z,4.95
2022-10-21T06:19:03.876Z,11.40
2022-10-21T06:21:39.542Z,13.65
2022-10-21T06:24:14.302Z,7.93
2022-10-21T06:26:45.249Z,7.03
2022-10-21T06:29:16.536Z,10.13
2022-10-21T06:31:47.758Z,12.50
2022-10-21T06:34:19.796Z,11.60
2022-10-21T06:36:53.492Z,10.65
2022-10-21T06:39:24.469Z,12.40
2022-10-21T06:41:55.690Z,11.80
2022-10-21T06:44:46.894Z,12.18
2022-10-21T06:47:17.529Z,17.10
2022-10-21T06:49:48.465Z,12.10
2022-10-21T06:52:22.447Z,11.65
2022-10-21T06:54:53.832Z,8.82
2022-10-21T06:57:24.962Z,10.52
2022-10-21T06:59:55.834Z,14.50
2022-10-21T07:02:27.262Z,12.88
2022-10-21T07:04:58.599Z,13.00
2022-10-21T07:07:32.215Z,13.10
2022-10-21T07:10:03.158Z,10.32
2022-10-21T07:12:34.893Z,13.65
2022-10-21T07:15:05.717Z,18.48
2022-10-21T07:17:37.057Z,12.05
2022-10-21T07:20:09.261Z,18.50
2022-10-21T07:22:42.540Z,13.00
2022-10-21T07:25:14.389Z,16.73
2022-10-21T07:27:47.592Z,17.70
2022-10-21T07:30:19.291Z,15.13
2022-10-21T07:32:49.966Z,20.45
2022-10-21T07:35:20.789Z,14.82
2022-10-21T07:37:54.333Z,16.13
2022-10-21T07:40:25.325Z,17.00
2022-10-21T07:42:56.049Z,20.77
2022-10-21T07:45:27.175Z,18.90
2022-10-21T07:47:58.109Z,14.05
2022-10-21T07:50:29.274Z,25.25
2022-10-21T07:53:11.884Z,19.83
2022-10-21T07:55:43.363Z,20.20
2022-10-21T07:58:14.775Z,21.42
2022-10-21T08:00:47.479Z,18.33
2022-10-21T08:03:18.539Z,20.45
2022-10-21T08:05:49.596Z,17.02
2022-10-21T08:08:24.430Z,19.38
2022-10-21T08:10:56.399Z,13.10
2022-10-21T08:13:27.740Z,16.60
2022-10-21T08:15:58.573Z,21.92
2022-10-21T08:18:29.341Z,22.08
2022-10-21T08:21:00.092Z,20.48
2022-10-21T08:23:34.057Z,23.80
2022-10-21T08:26:05.168Z,23.95
2022-10-21T08:28:37.035Z,21.85
2022-10-21T08:31:08.685Z,23.40
2022-10-21T08:33:39.713Z,19.80
2022-10-21T08:36:12.031Z,15.68
2022-10-21T08:38:46.130Z,19.80
2022-10-21T08:41:45.003Z,17.35
2022-10-21T08:44:27.030Z,23.33
2022-10-21T08:47:02.709Z,26.73
2022-10-21T08:49:40.462Z,18.67
2022-10-21T08:52:15.870Z,26.83
2022-10-21T08:54:54.759Z,18.90
2022-10-21T08:57:26.886Z,21.67
2022-10-21T08:59:58.201Z,16.70
2022-10-21T09:02:38.480Z,17.52
2022-10-21T09:05:40.970Z,25.25
2022-10-21T09:08:21.725Z,24.30
2022-10-21T09:11:12.583Z,28.02
2022-10-21T09:14:04.165Z,17.95
2022-10-21T09:16:44.414Z,20.63
2022-10-21T09:19:26.237Z,25.58
2022-10-21T09:22:29.933Z,20.15
2022-10-21T09:25:16.521Z,22.13
2022-10-21T09:27:56.469Z,21.08
2022-10-21T09:30:28.548Z,24.40
2022-10-21T09:33:01.573Z,23.33
2022-10-21T09:35:38.835Z,16.77
2022-10-21T09:38:18.498Z,19.75
2022-10-21T09:40:53.113Z,20.50
2022-10-21T09:43:28.806Z,22.75
2022-10-21T09:46:00.564Z,22.20
2022-10-21T09:48:50.217Z,22.75
2022-10-21T09:51:31.850Z,14.43
2022-10-21T09:54:10.809Z,15.85
2022-10-21T09:56:46.862Z,17.80
2022-10-21T09:59:23.645Z,23.23
2022-10-21T10:01:54.913Z,17.70
2022-10-21T10:04:29.318Z,22.50
2022-10-21T10:07:01.332Z,17.40
2022-10-21T10:09:33.788Z,17.00
2022-10-21T10:12:06.983Z,19.02
2022-10-21T10:14:42.399Z,19.88
2022-10-21T10:17:32.126Z,13.75
2022-10-21T10:20:20.048Z,19.80
2022-10-21T10:23:11.377Z,19.67
2022-10-21T10:25:43.324Z,20.02
2022-10-21T10:28:23.643Z,13.77
2022-10-21T10:30:59.302Z,19.65
2022-10-21T10:33:33.096Z,16.13
2022-10-21T10:36:09.344Z,15.25
2022-10-21T10:38:45.329Z,13.52
2022-10-21T10:41:18.666Z,13.18
2022-10-21T10:43:53.098Z,14.88
2022-10-21T10:46:30.214Z,17.13
2022-10-21T10:49:06.974Z,13.32
2022-10-21T10:51:40.785Z,13.68
2022-10-21T10:54:30.865Z,16.88
2022-10-21T10:57:04.196Z,11.27
2022-10-21T10:59:42.752Z,11.88
2022-10-21T11:02:43.702Z,16.25
2022-10-21T11:05:24.787Z,14.63
2022-10-21T11:07:58.243Z,18.33
2022-10-21T11:10:37.278Z,15.57
2022-10-21T11:13:13.502Z,12.18
2022-10-21T11:15:57.886Z,9.43
2022-10-21T11:18:37.639Z,11.27
2022-10-21T11:21:26.246Z,10.82
2022-10-21T11:24:20.263Z,10.48
2022-10-21T11:27:00.372Z,12.68
2022-10-21T11:29:54.994Z,10.90
2022-10-21T11:32:37.822Z,13.65
2022-10-21T11:35:20.927Z,13.90
2022-10-21T11:38:09.646Z,13.50
2022-10-21T11:40:44.234Z,13.10
2022-10-21T11:43:29.490Z,9.50
2022-10-21T11:46:07.446Z,17.90
2022-10-21T11:49:01.288Z,14.15
2022-10-21T11:51:43.597Z,12.85
2022-10-21T11:54:47.526Z,14.10
2022-10-21T11:57:35.839Z,12.02
2022-10-21T12:00:15.387Z,8.65
2022-10-21T12:02:49.207Z,11.48
2022-10-21T12:05:28.911Z,14.68
2022-10-21T12:08:14.178Z,15.60
2022-10-21T12:10:50.431Z,11.05
2022-10-21T12:13:26.273Z,14.52
2022-10-21T12:16:00.023Z,17.30
2022-10-21T12:18:33.460Z,11.88
2022-10-21T12:21:05.079Z,13.10
2022-10-21T12:23:38.539Z,11.02
2022-10-21T12:26:21.064Z,16.95
2022-10-21T12:28:58.512Z,11.75
2022-10-21T12:31:45.796Z,11.07
2022-10-21T12:34:17.644Z,15.75
2022-10-21T12:36:50.986Z,13.57
2022-10-21T12:39:51.583Z,9.63
2022-10-21T12:42:26.354Z,18.15
2022-10-21T12:44:57.299Z,14.35
2022-10-21T12:47:32.979Z,15.35
2022-10-21T12:50:10.145Z,14.18
2022-10-21T12:52:42.074Z,10.60
2022-10-21T12:55:27.352Z,11.30
2022-10-21T12:58:03.425Z,15.23
2022-10-21T13:00:55.283Z,10.85
2022-10-21T13:03:46.894Z,24.02
2022-10-21T13:06:21.220Z,14.05
2022-10-21T13:08:57.194Z,15.55
2022-10-21T13:11:41.938Z,7.03
2022-10-21T13:14:42.730Z,9.93
2022-10-21T13:17:46.158Z,10.40
2022-10-21T13:20:48.717Z,9.88
2022-10-21T13:23:43.321Z,10.27
2022-10-21T13:26:27.898Z,12.57
2022-10-21T13:29:11.489Z,10.30
2022-10-21T13:31:45.664Z,9.60
2022-10-21T13:34:31.283Z,12.25
2022-10-21T13:37:02.156Z,12.98
2022-10-21T13:39:36.832Z,10.13
2022-10-21T13:42:15.688Z,10.38
2022-10-21T13:44:55.835Z,9.55
2022-10-21T13:47:34.190Z,11.90
2022-10-21T13:50:15.199Z,15.52
2022-10-21T13:52:47.749Z,9.10
2022-10-21T13:55:23.815Z,9.70
2022-10-21T13:57:55.697Z,7.97
2022-10-21T14:00:31.658Z,9.75
2022-10-21T14:03:05.331Z,12.97
2022-10-21T14:05:40.358Z,10.02
2022-10-21T14:08:29.944Z,11.27
2022-10-21T14:11:03.109Z,9.68
2022-10-21T14:13:39.625Z,13.05
2022-10-21T14:16:15.857Z,6.55
2022-10-21T14:18:50.863Z,10.93
2022-10-21T14:21:24.886Z,12.93
2022-10-21T14:23:56.507Z,9.13
2022-10-21T14:26:31.211Z,11.27
2022-10-21T14:29:04.386Z,9.93
2022-10-21T14:31:38.788Z,12.63
2022-10-21T14:34:21.744Z,9.02
2022-10-21T14:37:11.095Z,9.15
2022-10-21T14:39:43.096Z,9.82
2022-10-21T14:42:19.672Z,10.88
2022-10-21T14:44:53.969Z,6.95
2022-10-21T14:47:30.538Z,9.88
2022-10-21T14:50:02.234Z,8.18
2022-10-21T14:52:38.576Z,12.63
2022-10-21T14:55:13.041Z,10.00
2022-10-21T14:57:48.233Z,10.10
2022-10-21T15:00:29.839Z,12.25
2022-10-21T15:03:05.009Z,9.45
2022-10-21T15:05:46.520Z,7.65
2022-10-21T15:08:32.748Z,7.90
2022-10-21T15:11:21.121Z,7.43
2022-10-21T15:14:24.234Z,8.20
2022-10-21T15:16:58.354Z,10.38
2022-10-21T15:19:43.979Z,8.32
2022-10-21T15:22:30.732Z,9.30
2022-10-21T15:25:08.616Z,11.25
2022-10-21T15:27:44.358Z,8.85
2022-10-21T15:30:20.930Z,9.02
2022-10-21T15:32:53.181Z,4.32
2022-10-21T15:35:27.261Z,8.50
2022-10-21T15:37:58.415Z,9.00
2022-10-21T15:40:29.463Z,9.82
2022-10-21T15:43:00.609Z,6.15
2022-10-21T15:45:31.569Z,8.50
2022-10-21T15:48:02.594Z,9.13
2022-10-21T15:50:37.164Z,6.60
2022-10-21T15:53:07.998Z,10.05
2022-10-21T15:55:39.375Z,8.85
2022-10-21T15:58:11.611Z,8.65
2022-10-21T16:00:42.672Z,5.57
2022-10-21T16:03:13.720Z,6.78
2022-10-21T16:05:47.715Z,6.13
2022-10-21T16:08:18.446Z,8.23
2022-10-21T16:10:50.327Z,8.35
2022-10-21T16:13:21.297Z,7.32
2022-10-21T16:15:52.224Z,11.55
2022-10-21T16:18:23.220Z,5.65
2022-10-21T16:20:58.245Z,7.47
2022-10-21T16:23:29.300Z,6.22
2022-10-21T16:26:00.270Z,5.80
2022-10-21T16:28:31.527Z,5.60
2022-10-21T16:31:02.954Z,7.57
2022-10-21T16:33:34.179Z,8.27
2022-10-21T16:36:19.229Z,7.93
2022-10-21T16:38:51.762Z,13.23
2022-10-21T16:41:25.437Z,7.68
2022-10-21T16:43:56.630Z,7.40
2022-10-21T16:46:30.739Z,7.20
2022-10-21T16:49:03.571Z,11.48
2022-10-21T16:51:38.979Z,8.05
2022-10-21T16:54:10.655Z,7.78
2022-10-21T16:56:41.523Z,10.30
2022-10-21T16:59:12.482Z,5.75
2022-10-21T17:01:43.891Z,8.38
2022-10-21T17:04:17.746Z,9.05
2022-10-21T17:06:52.108Z,8.18
2022-10-21T17:09:23.384Z,13.68
2022-10-21T17:11:55.031Z,8.50
2022-10-21T17:14:26.120Z,11.18
2022-10-21T17:16:57.211Z,6.60
2022-10-21T17:19:28.211Z,10.82
2022-10-21T17:22:01.742Z,14.40
2022-10-21T17:24:32.825Z,10.15
2022-10-21T17:27:04.034Z,10.77
2022-10-21T17:29:35.005Z,10.30
2022-10-21T17:32:06.520Z,15.85
2022-10-21T17:34:40.462Z,7.85
2022-10-21T17:37:15.021Z,12.43
2022-10-21T17:39:45.746Z,10.00
2022-10-21T17:42:21.098Z,8.07
2022-10-21T17:44:53.037Z,7.00
2022-10-21T17:47:23.812Z,12.15
2022-10-21T17:49:55.197Z,10.73
2022-10-21T17:52:28.726Z,9.65
2022-10-21T17:55:00.244Z,13.82
2022-10-21T17:57:33.184Z,10.82
2022-10-21T18:00:04.521Z,9.38
2022-10-21T18:02:36.885Z,6.07
2022-10-21T18:05:09.887Z,11.02
2022-10-21T18:07:43.798Z,13.82
2022-10-21T18:10:14.913Z,12.05
2022-10-21T18:12:45.953Z,12.43
2022-10-21T18:15:17.183Z,13.52
2022-10-21T18:17:48.161Z,13.48
2022-10-21T18:20:20.000Z,12.85
2022-10-21T18:22:56.242Z,11.82
2022-10-21T18:25:27.234Z,8.43
2022-10-21T18:27:59.055Z,11.90
2022-10-21T18:30:30.649Z,13.05
2022-10-21T18:33:02.398Z,14.20
2022-10-21T18:35:33.946Z,10.32
2022-10-21T18:38:08.233Z,12.23
2022-10-21T18:40:47.135Z,11.77
2022-10-21T18:43:33.376Z,16.20
2022-10-21T18:46:04.905Z,8.88
2022-10-21T18:48:36.125Z,12.80
2022-10-21T18:51:11.879Z,14.00
2022-10-21T18:53:49.799Z,11.45
2022-10-21T18:56:25.990Z,13.20
2022-10-21T18:58:57.696Z,17.38
2022-10-21T19:01:30.878Z,9.45
2022-10-21T19:04:02.701Z,12.27
2022-10-21T19:06:42.925Z,12.52
2022-10-21T19:09:19.489Z,12.05
2022-10-21T19:11:51.617Z,12.15
2022-10-21T19:14:23.162Z,12.00
2022-10-21T19:16:54.332Z,12.40
2022-10-21T19:19:28.992Z,10.38
2022-10-21T19:22:03.117Z,11.68
2022-10-21T19:24:38.074Z,13.05
2022-10-21T19:27:10.648Z,16.17
2022-10-21T19:29:41.775Z,13.20
2022-10-21T19:32:17.038Z,13.07
2022-10-21T19:34:48.429Z,12.65
2022-10-21T19:37:19.571Z,11.77
2022-10-21T19:39:53.253Z,9.10
2022-10-21T19:42:25.271Z,8.07
2022-10-21T19:44:56.255Z,11.68
2022-10-21T19:47:27.356Z,7.85
2022-10-21T19:49:58.481Z,8.60
2022-10-21T19:52:29.973Z,8.32
2022-10-21T19:55:04.504Z,6.43
2022-10-21T19:57:36.587Z,6.00
2022-10-21T20:00:09.554Z,7.95
2022-10-21T20:02:42.909Z,5.28
2022-10-21T20:05:14.202Z,6.80
2022-10-21T20:07:45.556Z,7.03
2022-10-21T20:10:20.756Z,7.32
2022-10-21T20:12:52.197Z,8.82
2022-10-21T20:15:24.012Z,7.72
2022-10-21T20:17:55.347Z,10.25
2022-10-21T20:20:26.367Z,6.28
2022-10-21T20:22:57.627Z,8.00
2022-10-21T20:25:32.874Z,9.02
2022-10-21T20:28:03.818Z,6.45
2022-10-21T20:30:34.587Z,14.27
2022-10-21T20:33:05.600Z,12.70
2022-10-21T20:35:41.614Z,6.95
2022-10-21T20:38:13.066Z,8.52
2022-10-21T20:40:48.271Z,6.68
2022-10-21T20:43:19.596Z,10.77
2022-10-21T20:45:50.401Z,13.18
2022-10-21T20:48:21.335Z,14.85
2022-10-21T20:50:52.417Z,15.80
2022-10-21T20:53:24.486Z,14.07
2022-10-21T20:56:00.902Z,13.23
2022-10-21T20:58:31.913Z,17.25
2022-10-21T21:01:09.104Z,17.65
2022-10-21T21:03:43.061Z,14.77
2022-10-21T21:06:15.234Z,16.15
2022-10-21T21:09:08.535Z,12.88
2022-10-21T21:11:44.059Z,14.65
2022-10-21T21:14:16.274Z,16.85
2022-10-21T21:16:46.972Z,16.13
2022-10-21T21:19:19.756Z,13.20
2022-10-21T21:21:52.281Z,13.43
2022-10-21T21:24:23.454Z,15.50
2022-10-21T21:26:57.130Z,16.35
2022-10-21T21:29:28.539Z,15.07
2022-10-21T21:31:59.929Z,17.33
2022-10-21T21:34:31.422Z,14.10
2022-10-21T21:37:02.673Z,14.02
2022-10-21T21:39:33.726Z,14.65
2022-10-21T21:42:08.566Z,16.13
2022-10-21T21:44:39.608Z,14.57
2022-10-21T21:47:10.984Z,13.75
2022-10-21T21:49:41.798Z,11.95
2022-10-21T21:52:12.792Z,11.70
2022-10-21T21:54:43.631Z,15.25
2022-10-21T21:57:34.114Z,13.73
2022-10-21T22:00:05.137Z,15.80
2022-10-21T22:02:36.244Z,17.27
2022-10-21T22:05:07.752Z,11.23
2022-10-21T22:07:39.910Z,15.65
2022-10-21T22:10:11.625Z,12.43
2022-10-21T22:12:45.750Z,12.05
2022-10-21T22:15:36.128Z,11.52
2022-10-21T22:18:08.118Z,11.43
2022-10-21T22:20:41.965Z,13.60
2022-10-21T22:23:12.738Z,19.08
2022-10-21T22:25:43.410Z,16.42
2022-10-21T22:28:17.726Z,9.15
2022-10-21T22:30:48.508Z,10.13
2022-10-21T22:33:19.141Z,14.93
2022-10-21T22:35:49.999Z,16.70
2022-10-21T22:38:20.740Z,19.42
2022-10-21T22:40:55.788Z,15.10
2022-10-21T22:43:30.214Z,15.07
2022-10-21T22:46:05.057Z,13.90
2022-10-21T22:48:46.307Z,15.77
2022-10-21T22:51:17.502Z,16.35
2022-10-21T22:53:53.457Z,16.13
2022-10-21T22:56:28.042Z,15.82
2022-10-21T22:59:01.816Z,15.13
2022-10-21T23:01:33.070Z,15.52
2022-10-21T23:04:05.512Z,15.20
2022-10-21T23:06:37.926Z,14.73
2022-10-21T23:09:09.153Z,16.50
2022-10-21T23:11:40.391Z,13.45
2022-10-21T23:14:13.789Z,17.05
2022-10-21T23:16:44.457Z,16.73
2022-10-21T23:19:15.606Z,15.27
2022-10-21T23:21:46.485Z,11.93
2022-10-21T23:24:17.879Z,14.35
2022-10-21T23:26:48.888Z,7.88
2022-10-21T23:29:23.027Z,12.07
2022-10-21T23:31:54.521Z,17.80
2022-10-21T23:34:25.634Z,14.57
2022-10-21T23:36:56.723Z,15.10
2022-10-21T23:39:27.409Z,12.10
2022-10-21T23:41:58.308Z,17.35
2022-10-21T23:44:32.156Z,12.05
2022-10-21T23:47:03.070Z,12.15
2022-10-21T23:49:33.819Z,11.90
2022-10-21T23:52:06.346Z,16.60
2022-10-21T23:54:37.385Z,14.43
2022-10-21T23:57:08.109Z,16.55
2022-10-21T23:59:42.138Z,13.70
